createdAt,value
2023-10-20T00:03:10.955Z,9.98
2023-10-20T00:07:13.161Z,9.75
2023-10-20T00:11:15.376Z,9.61
2023-10-20T00:15:20.889Z,10.01
2023-10-20T00:19:23.216Z,9.89
2023-10-20T00:23:25.587Z,9.83
2023-10-20T00:27:27.691Z,9.78
2023-10-20T00:31:31.215Z,9.70
2023-10-20T00:35:33.383Z,9.71
2023-10-20T00:39:36.351Z,9.92
2023-10-20T00:43:39.401Z,9.69
2023-10-20T00:47:42.516Z,9.67
2023-10-20T00:51:44.794Z,9.83
2023-10-20T00:55:47.403Z,10.10
2023-10-20T00:59:49.595Z,10.13
2023-10-20T01:03:51.996Z,10.10
2023-10-20T01:07:54.447Z,10.10
2023-10-20T01:11:58.116Z,10.06
2023-10-20T01:16:00.338Z,9.70
2023-10-20T01:20:07.531Z,9.85
2023-10-20T01:24:11.212Z,10.17
2023-10-20T01:28:14.461Z,10.15
2023-10-20T01:32:16.558Z,10.21
2023-10-20T01:36:19.005Z,10.24
2023-10-20T01:40:21.057Z,9.93
2023-10-20T01:44:23.504Z,10.09
2023-10-20T01:48:25.636Z,10.19
2023-10-20T01:52:27.919Z,9.94
2023-10-20T01:56:30.202Z,10.07
2023-10-20T02:00:32.507Z,10.05
2023-10-20T02:04:34.800Z,10.29
2023-10-20T02:08:38.969Z,10.39
2023-10-20T02:12:41.108Z,10.39
2023-10-20T02:16:43.247Z,10.45
2023-10-20T02:20:45.317Z,10.35
2023-10-20T02:24:47.818Z,10.53
2023-10-20T02:28:49.725Z,10.51
2023-10-20T02:32:51.943Z,10.43
2023-10-20T02:36:54.164Z,10.53
2023-10-20T02:40:57.732Z,10.07
2023-10-20T02:45:00.280Z,10.52
2023-10-20T02:49:02.156Z,10.12
2023-10-20T02:53:04.746Z,10.44
2023-10-20T02:57:06.888Z,10.67
2023-10-20T03:01:10.520Z,10.48
2023-10-20T03:05:13.169Z,10.51
2023-10-20T03:09:15.303Z,10.00
2023-10-20T03:13:18.476Z,10.29
2023-10-20T03:17:21.267Z,10.32
2023-10-20T03:21:24.572Z,10.36
2023-10-20T03:25:27.388Z,10.24
2023-10-20T03:29:29.563Z,10.50
2023-10-20T03:33:33.779Z,10.53
2023-10-20T03:37:35.798Z,10.50
2023-10-20T03:41:38.047Z,10.48
2023-10-20T03:45:49.812Z,10.27
2023-10-20T03:49:52.903Z,10.35
2023-10-20T03:53:56.254Z,10.31
2023-10-20T03:57:58.280Z,10.31
2023-10-20T04:02:00.269Z,10.38
2023-10-20T04:06:09.182Z,10.33
2023-10-20T04:10:11.262Z,10.37
2023-10-20T04:14:13.690Z,10.18
2023-10-20T04:18:17.042Z,10.36
2023-10-20T04:22:19.094Z,10.41
2023-10-20T04:26:23.981Z,10.42
2023-10-20T04:30:44.975Z,10.40
2023-10-20T04:35:18.927Z,9.61
2023-10-20T04:39:39.144Z,10.48
2023-10-20T04:43:43.747Z,10.33
2023-10-20T04:48:05.589Z,10.43
2023-10-20T04:52:26.940Z,10.19
2023-10-20T04:56:56.860Z,10.44
2023-10-20T05:01:06.065Z,10.21
2023-10-20T05:05:18.084Z,10.24
2023-10-20T05:09:20.322Z,10.06
2023-10-20T05:13:23.445Z,10.26
2023-10-20T05:17:26.241Z,9.95
2023-10-20T05:21:29.294Z,10.26
2023-10-20T05:25:31.332Z,10.10
2023-10-20T05:29:33.399Z,9.90
2023-10-20T05:33:35.524Z,9.58
2023-10-20T05:37:37.562Z,9.56
2023-10-20T05:41:39.518Z,9.62
2023-10-20T05:45:42.320Z,9.42
2023-10-20T05:49:44.382Z,9.71
2023-10-20T05:53:46.561Z,9.69
2023-10-20T05:57:48.867Z,9.68
2023-10-20T06:01:50.925Z,9.77
2023-10-20T06:05:52.895Z,9.29
2023-10-20T06:09:55.397Z,9.00
2023-10-20T06:13:57.489Z,8.62
2023-10-20T06:17:59.548Z,9.37
2023-10-20T06:22:01.767Z,9.32
2023-10-20T06:26:03.925Z,9.48
2023-10-20T06:30:15.612Z,9.40
2023-10-20T06:34:26.422Z,9.61
2023-10-20T06:38:32.127Z,9.29
2023-10-20T06:42:34.406Z,9.20
2023-10-20T06:46:36.456Z,9.38
2023-10-20T06:50:38.686Z,9.46
2023-10-20T06:54:40.751Z,9.66
2023-10-20T06:58:42.979Z,9.49
2023-10-20T07:02:45.170Z,9.57
2023-10-20T07:06:47.351Z,9.12
2023-10-20T07:10:51.488Z,9.55
2023-10-20T07:14:53.730Z,9.41
2023-10-20T07:18:55.867Z,9.89
2023-10-20T07:22:58.576Z,9.68
2023-10-20T07:27:02.791Z,9.65
2023-10-20T07:31:15.160Z,9.83
2023-10-20T07:35:17.461Z,9.61
2023-10-20T07:39:19.498Z,9.16
2023-10-20T07:43:22.964Z,9.53
2023-10-20T07:47:25.634Z,9.72
2023-10-20T07:51:28.083Z,9.61
2023-10-20T07:55:30.319Z,9.61
2023-10-20T07:59:32.880Z,9.59
2023-10-20T08:03:35.386Z,10.02
2023-10-20T08:07:39.934Z,9.53
2023-10-20T08:11:43.416Z,10.07
2023-10-20T08:15:45.757Z,9.51
2023-10-20T08:19:48.087Z,9.64
2023-10-20T08:23:50.191Z,9.81
2023-10-20T08:27:52.536Z,10.02
2023-10-20T08:31:54.604Z,9.87
2023-10-20T08:35:56.861Z,10.21
2023-10-20T08:39:58.859Z,9.68
2023-10-20T08:44:02.404Z,10.27
2023-10-20T08:48:07.161Z,9.89
2023-10-20T08:52:11.698Z,9.58
2023-10-20T08:56:14.319Z,10.09
2023-10-20T09:00:23.374Z,10.03
2023-10-20T09:04:27.346Z,9.64
2023-10-20T09:08:29.678Z,10.46
2023-10-20T09:12:33.302Z,10.50
2023-10-20T09:16:35.817Z,10.27
2023-10-20T09:20:38.214Z,10.24
2023-10-20T09:24:42.503Z,10.09
2023-10-20T09:28:49.386Z,10.32
2023-10-20T09:32:51.376Z,10.16
2023-10-20T09:36:54.386Z,10.51
2023-10-20T09:41:09.111Z,10.09
2023-10-20T09:45:18.980Z,9.99
2023-10-20T09:49:24.398Z,9.83
2023-10-20T09:53:27.263Z,10.08
2023-10-20T09:57:29.678Z,10.17
2023-10-20T10:01:32.272Z,10.11
2023-10-20T10:05:34.892Z,10.30
2023-10-20T10:09:39.064Z,10.18
2023-10-20T10:13:41.200Z,10.24
2023-10-20T10:17:47.928Z,9.99
2023-10-20T10:21:54.539Z,10.10
2023-10-20T10:25:56.713Z,9.96
2023-10-20T10:30:01.528Z,10.43
2023-10-20T10:34:07.342Z,10.71
2023-10-20T10:38:23.528Z,10.23
2023-10-20T10:42:28.837Z,10.14
2023-10-20T10:46:36.107Z,10.19
2023-10-20T10:50:43.140Z,9.89
2023-10-20T10:54:45.380Z,9.90
2023-10-20T10:58:47.559Z,9.88
2023-10-20T11:02:50.272Z,10.06
2023-10-20T11:06:52.176Z,9.87
2023-10-20T11:10:54.164Z,9.96
2023-10-20T11:15:04.986Z,9.61
2023-10-20T11:19:07.158Z,9.92
2023-10-20T11:23:10.436Z,10.26
2023-10-20T11:27:14.021Z,9.92
2023-10-20T11:31:16.449Z,10.15
2023-10-20T11:35:18.660Z,9.80
2023-10-20T11:39:25.855Z,9.59
2023-10-20T11:43:27.999Z,9.76
2023-10-20T11:47:30.054Z,10.04
2023-10-20T11:51:32.423Z,9.90
2023-10-20T11:55:34.664Z,10.03
2023-10-20T11:59:36.858Z,10.19
2023-10-20T12:03:39.743Z,9.86
2023-10-20T12:07:41.854Z,9.75
2023-10-20T12:11:44.299Z,9.83
2023-10-20T12:15:46.354Z,9.66
2023-10-20T12:19:50.303Z,9.94
2023-10-20T12:23:52.532Z,9.41
2023-10-20T12:27:54.564Z,9.53
2023-10-20T12:31:58.000Z,9.98
2023-10-20T12:36:00.395Z,9.70
2023-10-20T12:40:02.612Z,9.89
2023-10-20T12:44:05.458Z,9.83
2023-10-20T12:48:08.245Z,9.48
2023-10-20T12:52:10.267Z,9.35
2023-10-20T12:56:12.264Z,9.29
2023-10-20T13:00:14.814Z,9.71
2023-10-20T13:04:17.899Z,9.58
2023-10-20T13:08:20.025Z,9.57
2023-10-20T13:12:23.474Z,9.54
2023-10-20T13:16:25.466Z,9.57
2023-10-20T13:20:27.842Z,9.16
2023-10-20T13:24:29.866Z,9.41
2023-10-20T13:28:35.763Z,9.34
2023-10-20T13:32:37.788Z,9.24
2023-10-20T13:36:39.953Z,9.34
2023-10-20T13:40:42.041Z,9.08
2023-10-20T13:44:44.362Z,9.35
2023-10-20T13:48:46.683Z,9.36
2023-10-20T13:52:48.804Z,9.32
2023-10-20T13:56:50.890Z,9.37
2023-10-20T14:00:53.059Z,9.44
2023-10-20T14:04:55.073Z,9.37
2023-10-20T14:08:57.206Z,9.25
2023-10-20T14:12:59.424Z,8.72
2023-10-20T14:17:07.656Z,8.85
2023-10-20T14:21:09.941Z,8.77
2023-10-20T14:25:12.276Z,8.94
2023-10-20T14:29:17.134Z,8.80
2023-10-20T14:33:19.306Z,9.09
2023-10-20T14:37:21.570Z,8.78
2023-10-20T14:41:24.101Z,8.77
2023-10-20T14:45:26.132Z,9.16
2023-10-20T14:49:27.874Z,8.61
2023-10-20T14:53:29.933Z,8.53
2023-10-20T14:57:32.354Z,8.67
2023-10-20T15:01:34.622Z,8.85
2023-10-20T15:05:39.165Z,9.13
2023-10-20T15:09:41.155Z,8.91
2023-10-20T15:13:44.599Z,8.99
2023-10-20T15:17:46.941Z,9.08
2023-10-20T15:21:48.957Z,9.07
2023-10-20T15:25:50.977Z,9.13
2023-10-20T15:29:53.198Z,9.19
2023-10-20T15:33:55.446Z,9.37
2023-10-20T15:37:58.338Z,9.16
2023-10-20T15:42:00.459Z,9.37
2023-10-20T15:46:07.914Z,9.35
2023-10-20T15:50:13.361Z,9.13
2023-10-20T15:54:19.901Z,9.11
2023-10-20T15:58:23.857Z,9.41
2023-10-20T16:02:26.177Z,9.25
2023-10-20T16:06:28.308Z,9.18
2023-10-20T16:10:30.494Z,9.19
2023-10-20T16:14:32.535Z,9.16
2023-10-20T16:18:35.234Z,9.16
2023-10-20T16:22:37.296Z,9.20
2023-10-20T16:26:39.474Z,9.49
2023-10-20T16:30:41.569Z,9.10
2023-10-20T16:34:43.632Z,9.32
2023-10-20T16:38:45.882Z,9.45
2023-10-20T16:42:48.190Z,9.10
2023-10-20T16:46:51.054Z,9.36
2023-10-20T16:50:59.682Z,9.37
2023-10-20T16:55:01.899Z,9.45
2023-10-20T16:59:04.178Z,8.85
2023-10-20T17:03:07.075Z,9.21
2023-10-20T17:07:09.627Z,9.04
2023-10-20T17:11:12.360Z,8.49
2023-10-20T17:15:14.811Z,9.09
2023-10-20T17:19:16.895Z,9.41
2023-10-20T17:23:19.111Z,9.52
2023-10-20T17:27:21.234Z,9.38
2023-10-20T17:31:23.507Z,9.54
2023-10-20T17:35:25.521Z,9.55
2023-10-20T17:39:27.700Z,9.44
2023-10-20T17:43:30.471Z,9.28
2023-10-20T17:47:33.208Z,8.90
2023-10-20T17:51:36.074Z,9.10
2023-10-20T17:55:39.897Z,9.72
2023-10-20T17:59:41.968Z,9.56
2023-10-20T18:03:44.682Z,9.46
2023-10-20T18:07:46.934Z,9.46
2023-10-20T18:11:49.116Z,9.41
2023-10-20T18:15:51.204Z,9.68
2023-10-20T18:19:53.476Z,9.74
2023-10-20T18:23:59.156Z,9.76
2023-10-20T18:28:01.976Z,9.76
2023-10-20T18:32:04.542Z,9.70
2023-10-20T18:36:07.245Z,9.84
2023-10-20T18:40:09.739Z,9.59
2023-10-20T18:44:11.927Z,9.63
2023-10-20T18:48:14.184Z,9.32
2023-10-20T18:52:16.456Z,9.39
2023-10-20T18:56:18.579Z,9.25
2023-10-20T19:00:20.913Z,9.06
2023-10-20T19:04:23.145Z,9.42
2023-10-20T19:08:25.660Z,9.48
2023-10-20T19:12:27.737Z,9.40
2023-10-20T19:16:34.214Z,9.13
2023-10-20T19:20:37.033Z,9.67
2023-10-20T19:24:39.257Z,9.55
2023-10-20T19:28:42.267Z,9.59
2023-10-20T19:32:44.644Z,9.73
2023-10-20T19:36:46.868Z,9.42
2023-10-20T19:40:49.045Z,9.75
2023-10-20T19:44:51.152Z,9.57
2023-10-20T19:48:53.425Z,9.45
2023-10-20T19:52:55.495Z,9.81
2023-10-20T19:56:57.740Z,9.50
2023-10-20T20:01:01.748Z,9.45
2023-10-20T20:05:06.292Z,9.73
2023-10-20T20:09:09.199Z,9.95
2023-10-20T20:13:11.471Z,9.87
2023-10-20T20:17:13.545Z,9.87
2023-10-20T20:21:15.676Z,10.08
2023-10-20T20:25:17.872Z,10.16
2023-10-20T20:29:19.974Z,10.00
2023-10-20T20:33:22.150Z,9.95
2023-10-20T20:37:24.366Z,10.19
2023-10-20T20:41:26.267Z,10.18
2023-10-20T20:45:28.394Z,10.09
2023-10-20T20:49:31.501Z,10.37
2023-10-20T20:53:33.618Z,10.33
2023-10-20T20:57:35.614Z,10.32
2023-10-20T21:01:39.104Z,10.63
2023-10-20T21:05:41.194Z,10.46
2023-10-20T21:09:44.320Z,10.25
2023-10-20T21:13:46.387Z,10.31
2023-10-20T21:17:48.624Z,9.78
2023-10-20T21:21:50.624Z,10.25
2023-10-20T21:25:52.933Z,10.71
2023-10-20T21:29:55.070Z,10.68
2023-10-20T21:33:57.380Z,10.79
2023-10-20T21:37:59.437Z,10.50
2023-10-20T21:42:04.141Z,10.17
2023-10-20T21:46:08.246Z,10.81
2023-10-20T21:50:10.677Z,10.74
2023-10-20T21:54:12.793Z,10.97
2023-10-20T21:58:14.968Z,10.92
2023-10-20T22:02:16.658Z,10.76
2023-10-20T22:06:19.142Z,11.17
2023-10-20T22:10:21.182Z,10.71
2023-10-20T22:14:23.327Z,10.89
2023-10-20T22:18:25.463Z,10.79
2023-10-20T22:22:27.702Z,10.92
2023-10-20T22:26:30.114Z,10.76
2023-10-20T22:30:33.045Z,10.81
2023-10-20T22:34:35.115Z,10.97
2023-10-20T22:38:37.282Z,10.83
2023-10-20T22:42:39.430Z,10.87
2023-10-20T22:46:41.558Z,11.08
2023-10-20T22:50:43.228Z,11.11
2023-10-20T22:54:45.228Z,11.01
2023-10-20T22:58:47.520Z,10.93
2023-10-20T23:02:49.936Z,10.78
2023-10-20T23:06:53.715Z,10.76
2023-10-20T23:10:56.769Z,10.92
2023-10-20T23:14:59.400Z,10.83
2023-10-20T23:19:01.642Z,10.66
2023-10-20T23:23:05.026Z,10.76
2023-10-20T23:27:07.318Z,10.82
2023-10-20T23:31:09.379Z,10.85
2023-10-20T23:35:11.238Z,10.52
2023-10-20T23:39:13.340Z,10.58
2023-10-20T23:43:15.496Z,10.69
2023-10-20T23:47:17.708Z,10.62
2023-10-20T23:51:20.694Z,10.50
2023-10-20T23:55:26.346Z,10.89
2023-10-20T23:59:28.536Z,10.58
